Time;durP1;ratioP1;P1;durP2;ratioP2;P2;SDS_P1;SDS_P2;PMS_P1;PMS_P2;Temp;Humidity;BMP_temperature;BMP_pressure;BME280_temperature;BME280_humidity;BME280_pressure;Samples;Min_cycle;Max_cycle;Signal;HPM_P1;HPM_P2
2022/09/29 00:01:20;;;;;;;;;3.50;2.25;;;;;21.31;40.03;99552.09;4900007;29;45460;-60
2022/09/29 00:03:45;;;;;;;;;1.50;1.50;;;;;21.29;40.04;99553.13;4902313;28;50027;-60
2022/09/29 00:06:14;;;;;;;;;3.00;3.00;;;;;21.30;40.21;99550.41;4902012;29;45641;-60
2022/09/29 00:08:39;;;;;;;;;2.00;2.00;;;;;21.31;40.30;99556.50;4902819;28;45520;-60
2022/09/29 00:11:09;;;;;;;;;2.00;2.00;;;;;21.31;40.10;99548.59;4902889;28;45253;-60
2022/09/29 00:13:34;;;;;;;;;2.00;2.00;;;;;21.30;40.17;99552.19;4903529;28;45966;-60
2022/09/29 00:16:01;;;;;;;;;2.50;2.00;;;;;21.29;39.99;99547.88;4903000;28;45563;-60
2022/09/29 00:18:28;;;;;;;;;2.25;2.25;;;;;21.30;40.04;99550.41;4923916;28;45437;-58
2022/09/29 00:21:07;;;;;;;;;1.50;1.50;;;;;21.30;40.13;99546.91;4904443;28;45227;-60
2022/09/29 00:23:34;;;;;;;;;3.00;1.00;;;;;21.30;40.18;99544.28;4903326;28;45480;-60
2022/09/29 00:26:13;;;;;;;;;1.25;1.25;;;;;21.30;39.90;99553.03;4902816;28;45504;-59
2022/09/29 00:28:40;;;;;;;;;2.00;2.00;;;;;21.29;40.36;99540.81;4902636;28;45351;-59
2022/09/29 00:31:07;;;;;;;;;3.00;2.00;;;;;21.29;40.19;99540.81;4901121;29;45714;-60
2022/09/29 00:33:34;;;;;;;;;2.25;2.00;;;;;21.30;40.29;99541.66;4903062;28;45484;-59
2022/09/29 00:36:03;;;;;;;;;2.50;2.00;;;;;21.29;40.15;99538.19;4903265;28;45470;-59
2022/09/29 00:38:29;;;;;;;;;2.00;2.00;;;;;21.29;40.63;99546.09;4903098;28;45344;-59
2022/09/29 00:40:55;;;;;;;;;1.25;1.25;;;;;21.29;40.30;99542.59;4904142;28;45293;-59
2022/09/29 00:43:43;;;;;;;;;2.00;2.00;;;;;21.31;40.48;99545.97;4902914;28;45377;-59
2022/09/29 00:46:11;;;;;;;;;5.00;3.00;;;;;21.30;40.03;99533.75;4902909;28;45512;-58
2022/09/29 00:48:38;;;;;;;;;1.25;1.25;;;;;21.29;40.19;99537.31;4903145;28;46579;-59
2022/09/29 00:51:04;;;;;;;;;1.00;1.00;;;;;21.29;40.51;99532.91;4914644;29;45764;-59
2022/09/29 00:53:30;;;;;;;;;2.00;2.00;;;;;21.29;40.13;99529.41;4906009;29;45289;-59
2022/09/29 00:56:02;;;;;;;;;1.50;1.50;;;;;21.29;40.32;99521.53;4924169;28;45594;-60
2022/09/29 00:58:32;;;;;;;;;1.50;1.50;;;;;21.28;40.26;99523.34;4927200;28;46561;-59
2022/09/29 01:00:58;;;;;;;;;2.75;1.25;;;;;21.28;39.98;99523.34;4925514;28;45089;-59
2022/09/29 01:03:28;;;;;;;;;3.00;1.75;;;;;21.28;40.26;99525.97;4910397;28;45484;-60
2022/09/29 01:05:58;;;;;;;;;1.00;1.00;;;;;21.27;39.88;99534.81;4903037;28;45531;-60
2022/09/29 01:08:32;;;;;;;;;2.00;1.00;;;;;21.28;40.44;99525.09;4902706;29;47389;-59
2022/09/29 01:11:00;;;;;;;;;4.00;2.00;;;;;21.26;40.59;99514.69;4901916;28;45870;-59
2022/09/29 01:13:27;;;;;;;;;1.00;1.00;;;;;21.26;40.34;99522.59;4901919;28;45426;-59
2022/09/29 01:15:53;;;;;;;;;1.50;1.50;;;;;21.27;39.98;99519.03;4901935;28;45644;-59
2022/09/29 01:18:19;;;;;;;;;1.00;1.00;;;;;21.26;40.34;99512.06;4901831;28;45805;-59
2022/09/29 01:21:10;;;;;;;;;4.00;3.00;;;;;21.28;40.30;99517.19;4901736;28;45418;-61
2022/09/29 01:23:56;;;;;;;;;1.75;1.75;;;;;21.27;40.52;99507.66;4902660;28;45449;-59
2022/09/29 01:26:58;;;;;;;;;2.75;1.25;;;;;21.27;40.05;99505.84;4902184;28;45408;-59
2022/09/29 01:29:54;;;;;;;;;4.00;1.00;;;;;21.26;40.06;99501.53;4901720;28;45428;-59
2022/09/29 01:32:50;;;;;;;;;1.00;1.00;;;;;21.27;40.62;99505.00;4901882;28;45432;-59
2022/09/29 01:35:27;;;;;;;;;3.00;1.75;;;;;21.26;40.22;99492.81;4902014;29;45350;-59
2022/09/29 01:37:52;;;;;;;;;1.75;1.75;;;;;21.27;40.26;99503.22;4924326;28;45352;-59
2022/09/29 01:40:32;;;;;;;;;1.00;1.00;;;;;21.26;40.40;99495.44;4902529;28;53643;-59
2022/09/29 01:43:07;;;;;;;;;1.50;1.50;;;;;21.27;40.20;99499.75;4900330;28;45860;-59
2022/09/29 01:45:39;;;;;;;;;1.00;1.00;;;;;21.26;40.59;99496.25;4901980;28;45509;-60
2022/09/29 01:48:18;;;;;;;;;1.00;1.00;;;;;21.25;40.22;99499.84;4902312;28;45228;-59
2022/09/29 01:50:49;;;;;;;;;2.00;2.00;;;;;21.26;40.24;99505.97;4901488;28;45847;-59
2022/09/29 01:53:23;;;;;;;;;1.00;1.00;;;;;21.27;40.07;99508.47;4901809;28;45544;-59
2022/09/29 01:55:55;;;;;;;;;1.00;1.00;;;;;21.26;40.51;99505.97;4901190;28;45267;-59
2022/09/29 01:58:28;;;;;;;;;1.25;1.25;;;;;21.26;40.35;99505.97;4902127;29;45594;-59
2022/09/29 02:00:57;;;;;;;;;1.00;1.00;;;;;21.25;40.31;99506.94;4902095;28;46698;-59
2022/09/29 02:03:31;;;;;;;;;3.00;1.00;;;;;21.25;40.52;99501.66;4905104;28;45297;-59
2022/09/29 02:06:03;;;;;;;;;1.50;1.00;;;;;21.25;40.02;99505.13;4903919;28;45417;-60
2022/09/29 02:08:49;;;;;;;;;1.00;1.00;;;;;21.26;40.33;99512.06;4904688;28;45275;-59
2022/09/29 02:11:15;;;;;;;;;1.00;1.00;;;;;21.26;40.33;99513.88;4900875;28;46318;-59
2022/09/29 02:13:50;;;;;;;;;1.00;1.00;;;;;21.25;40.38;99513.03;4900760;28;45887;-59
2022/09/29 02:16:21;;;;;;;;;2.00;1.00;;;;;21.25;40.21;99510.38;4900880;28;45402;-58
2022/09/29 02:18:49;;;;;;;;;1.25;1.00;;;;;21.25;40.13;99512.19;4900880;28;45365;-58
2022/09/29 02:21:14;;;;;;;;;1.00;1.00;;;;;21.25;40.40;99513.03;4899356;29;48404;-58
2022/09/29 02:23:40;;;;;;;;;1.00;1.00;;;;;21.25;40.32;99513.03;4899822;28;45418;-59
2022/09/29 02:26:06;;;;;;;;;1.00;1.00;;;;;21.25;40.05;99509.56;4901896;28;45454;-59
2022/09/29 02:28:31;;;;;;;;;1.00;1.00;;;;;21.25;39.99;99512.19;4901803;28;45480;-59
2022/09/29 02:30:57;;;;;;;;;1.75;1.00;;;;;21.25;40.44;99514.84;4901188;29;46785;-59
2022/09/29 02:33:24;;;;;;;;;1.00;1.00;;;;;21.24;40.61;99513.97;4901937;28;45351;-59
2022/09/29 02:36:01;;;;;;;;;1.00;1.00;;;;;21.24;40.32;99508.72;4901540;28;45248;-59
2022/09/29 02:38:51;;;;;;;;;1.00;1.00;;;;;21.22;40.26;99510.63;4901806;28;45227;-59
2022/09/29 02:41:35;;;;;;;;;1.00;1.00;;;;;21.24;40.37;99508.72;4901200;28;46718;-59
2022/09/29 02:44:20;;;;;;;;;1.00;1.00;;;;;21.24;40.15;99506.06;4900877;28;45315;-59
2022/09/29 02:47:02;;;;;;;;;1.00;1.00;;;;;21.22;40.39;99501.91;4900748;28;45491;-59
2022/09/29 02:49:45;;;;;;;;;2.00;1.75;;;;;21.24;40.15;99503.44;4901259;28;45341;-59
2022/09/29 02:52:30;;;;;;;;;0.00;0.00;;;;;21.23;40.02;99501.75;4900784;28;46732;-59
2022/09/29 02:55:17;;;;;;;;;1.25;1.00;;;;;21.22;40.21;99500.09;4901359;28;45652;-59
2022/09/29 02:57:52;;;;;;;;;1.00;1.00;;;;;21.24;40.38;99502.63;4924023;29;44707;-59
2022/09/29 03:00:18;;;;;;;;;1.00;1.00;;;;;21.22;40.05;99492.19;4902163;28;45398;-59
2022/09/29 03:02:44;;;;;;;;;2.00;1.00;;;;;21.23;40.17;99495.66;4900945;28;46629;-59
2022/09/29 03:05:14;;;;;;;;;1.00;1.00;;;;;21.21;40.48;99493.16;4902998;28;45315;-59
2022/09/29 03:07:40;;;;;;;;;1.00;1.00;;;;;21.22;40.17;99489.53;4913078;28;45291;-59
2022/09/29 03:10:07;;;;;;;;;1.50;1.50;;;;;21.23;40.19;99491.22;4915466;28;45331;-58
2022/09/29 03:12:34;;;;;;;;;2.25;2.00;;;;;21.23;40.48;99485.13;4913993;29;47319;-59
2022/09/29 03:14:59;;;;;;;;;2.00;1.00;;;;;21.23;40.46;99491.22;4881953;29;45906;-58
2022/09/29 03:17:24;;;;;;;;;1.00;1.00;;;;;21.23;40.23;99493.84;4881851;29;45291;-59
2022/09/29 03:19:50;;;;;;;;;2.75;1.50;;;;;21.22;40.27;99488.72;4881088;29;45706;-59
2022/09/29 03:22:16;;;;;;;;;1.00;1.00;;;;;21.20;40.28;99486.22;4880887;29;56385;-58
2022/09/29 03:24:41;;;;;;;;;1.00;1.00;;;;;21.21;40.20;99490.53;4880782;29;45648;-59
2022/09/29 03:27:08;;;;;;;;;1.50;1.50;;;;;21.23;40.16;99491.22;4900408;28;45542;-59
2022/09/29 03:29:34;;;;;;;;;2.50;1.25;;;;;21.22;40.10;99489.53;4900313;28;45496;-59
2022/09/29 03:32:00;;;;;;;;;1.00;1.00;;;;;21.21;40.19;99482.63;4899702;28;46204;-59
2022/09/29 03:34:25;;;;;;;;;1.00;1.00;;;;;21.22;40.35;99488.72;4899779;28;45208;-59
2022/09/29 03:36:50;;;;;;;;;0.75;0.75;;;;;21.21;40.49;99487.91;4898292;29;45300;-59
2022/09/29 03:39:16;;;;;;;;;1.00;1.00;;;;;21.21;40.03;99485.25;4900161;28;45547;-59
2022/09/29 03:41:41;;;;;;;;;1.00;1.00;;;;;21.21;40.24;99487.03;4899822;28;47366;-59
2022/09/29 03:44:06;;;;;;;;;2.00;2.00;;;;;21.21;40.18;99487.03;4900014;28;45402;-59
2022/09/29 03:46:32;;;;;;;;;2.25;1.75;;;;;21.20;40.28;99486.22;4899875;28;45175;-58
2022/09/29 03:48:57;;;;;;;;;1.00;1.00;;;;;21.20;40.21;99488.84;4899726;28;45640;-59
2022/09/29 03:51:22;;;;;;;;;2.00;0.75;;;;;21.20;40.13;99486.22;4899264;28;46154;-59
2022/09/29 03:53:48;;;;;;;;;0.67;0.67;;;;;21.20;40.29;99486.22;4899015;29;62489;-59
2022/09/29 03:56:13;;;;;;;;;1.00;0.00;;;;;21.20;40.13;99483.59;4900032;28;45369;-59
2022/09/29 03:58:39;;;;;;;;;1.00;1.00;;;;;21.20;40.49;99488.84;4900474;29;45594;-58
2022/09/29 04:01:04;;;;;;;;;0.00;0.00;;;;;21.19;40.45;99488.97;4899365;29;45612;-58
2022/09/29 04:03:30;;;;;;;;;0.25;0.25;;;;;21.20;40.33;99496.75;4899711;28;45348;-58
2022/09/29 04:05:55;;;;;;;;;1.00;1.00;;;;;21.19;40.36;99484.53;4903644;28;45389;-59
2022/09/29 04:08:20;;;;;;;;;1.00;1.00;;;;;21.19;40.38;99489.81;4923185;29;45298;-59
2022/09/29 04:10:47;;;;;;;;;1.00;1.00;;;;;21.20;40.44;99493.28;4919228;28;54264;-59
2022/09/29 04:13:13;;;;;;;;;1.00;1.00;;;;;21.20;40.05;99488.00;4899644;29;45887;-59
2022/09/29 04:15:38;;;;;;;;;1.00;1.00;;;;;21.19;40.16;99486.31;4910946;28;45354;-59
2022/09/29 04:18:04;;;;;;;;;2.75;1.00;;;;;21.19;40.11;99483.69;4907212;28;45479;-59
2022/09/29 04:20:30;;;;;;;;;1.00;1.00;;;;;21.17;40.36;99491.72;4899584;29;48303;-59
2022/09/29 04:22:55;;;;;;;;;1.50;1.00;;;;;21.19;40.36;99495.09;4900805;28;45469;-59
2022/09/29 04:25:21;;;;;;;;;1.00;1.00;;;;;21.19;40.56;99500.34;4900793;28;45224;-59
2022/09/29 04:27:46;;;;;;;;;1.00;1.00;;;;;21.18;40.16;99503.94;4899080;29;45596;-60
2022/09/29 04:30:11;;;;;;;;;1.00;1.00;;;;;21.19;40.36;99505.63;4899849;28;53100;-59
2022/09/29 04:32:37;;;;;;;;;1.50;1.50;;;;;21.19;40.49;99504.75;4899988;28;45260;-59
2022/09/29 04:35:02;;;;;;;;;1.00;1.00;;;;;21.19;40.31;99505.63;4899030;28;45449;-58
2022/09/29 04:37:28;;;;;;;;;1.00;1.00;;;;;21.20;40.27;99507.28;4899492;28;45613;-59
2022/09/29 04:39:53;;;;;;;;;1.00;1.00;;;;;21.17;40.51;99503.09;4899251;28;46143;-59
2022/09/29 04:42:19;;;;;;;;;1.00;1.00;;;;;21.18;40.52;99501.31;4899237;28;45468;-59
2022/09/29 04:44:45;;;;;;;;;1.00;1.00;;;;;21.17;40.28;99494.34;4899112;28;45380;-59
2022/09/29 04:47:11;;;;;;;;;1.00;1.00;;;;;21.17;40.26;99499.63;4899710;28;45462;-59
2022/09/29 04:49:36;;;;;;;;;1.00;1.00;;;;;21.18;40.38;99498.66;4902977;28;46353;-59
2022/09/29 04:52:02;;;;;;;;;1.50;0.75;;;;;21.17;40.22;99502.25;4902196;28;45410;-59
2022/09/29 04:54:33;;;;;;;;;1.00;1.00;;;;;21.17;40.23;99507.53;4904724;28;45432;-60
2022/09/29 04:56:59;;;;;;;;;0.75;0.75;;;;;21.17;40.05;99503.09;4905692;28;45553;-60
2022/09/29 04:59:24;;;;;;;;;2.00;1.00;;;;;21.17;40.26;99503.09;4902627;28;45500;-60
2022/09/29 05:01:49;;;;;;;;;1.00;1.00;;;;;21.17;40.52;99502.25;4902554;28;45469;-60
2022/09/29 05:04:15;;;;;;;;;1.00;1.00;;;;;21.17;40.36;99504.91;4902951;28;45337;-59
2022/09/29 05:06:40;;;;;;;;;1.50;1.00;;;;;21.17;40.17;99507.53;4903561;28;45345;-59
2022/09/29 05:09:06;;;;;;;;;2.00;1.00;;;;;21.16;40.30;99505.84;4903162;28;46225;-59
2022/09/29 05:11:31;;;;;;;;;1.50;1.50;;;;;21.16;40.75;99509.34;4903052;28;45478;-60
2022/09/29 05:13:57;;;;;;;;;1.50;0.75;;;;;21.15;40.49;99509.44;4903983;28;45343;-60
2022/09/29 05:16:23;;;;;;;;;1.00;1.00;;;;;21.15;40.44;99515.56;4908529;28;45331;-60
2022/09/29 05:18:49;;;;;;;;;1.00;1.00;;;;;21.15;40.38;99504.19;4908859;29;47498;-60
2022/09/29 05:21:14;;;;;;;;;1.25;1.00;;;;;21.16;40.59;99505.84;4914612;28;45280;-60
2022/09/29 05:23:41;;;;;;;;;2.00;1.00;;;;;21.15;40.67;99501.53;4916732;28;45256;-60
2022/09/29 05:26:08;;;;;;;;;1.00;1.00;;;;;21.15;40.83;99506.81;4920910;29;44903;-60
2022/09/29 05:28:34;;;;;;;;;1.00;0.25;;;;;21.15;40.62;99506.81;4918406;28;45667;-60
2022/09/29 05:31:05;;;;;;;;;1.50;1.50;;;;;21.15;40.75;99506.81;4918875;29;45099;-61
2022/09/29 05:33:31;;;;;;;;;1.00;1.00;;;;;21.13;40.98;99512.22;4913808;29;45240;-61
2022/09/29 05:35:57;;;;;;;;;1.00;1.00;;;;;21.14;40.71;99518.31;4915185;28;45642;-60
2022/09/29 05:38:23;;;;;;;;;1.50;1.50;;;;;21.13;41.04;99511.34;4919484;28;56693;-61
2022/09/29 05:40:49;;;;;;;;;2.25;1.00;;;;;21.12;40.99;99510.53;4919463;28;45457;-61
2022/09/29 05:43:15;;;;;;;;;1.75;1.00;;;;;21.11;41.00;99516.75;4914688;28;45495;-60
2022/09/29 05:45:41;;;;;;;;;1.00;1.00;;;;;21.11;40.71;99524.66;4909783;29;44888;-60
2022/09/29 05:48:07;;;;;;;;;2.00;1.00;;;;;21.12;40.88;99530.75;4910699;28;45434;-61
2022/09/29 05:50:40;;;;;;;;;1.00;1.00;;;;;21.11;40.91;99523.84;4909590;28;45355;-61
2022/09/29 05:53:05;;;;;;;;;0.75;0.75;;;;;21.12;40.59;99526.34;4910670;28;45388;-60
2022/09/29 05:55:31;;;;;;;;;1.25;1.25;;;;;21.09;41.12;99520.47;4908611;28;45404;-60
2022/09/29 05:57:56;;;;;;;;;1.67;1.67;;;;;21.10;40.69;99520.34;4903336;29;60998;-60
2022/09/29 06:00:21;;;;;;;;;2.00;0.50;;;;;21.10;40.75;99525.63;4902352;28;46505;-60
2022/09/29 06:02:47;;;;;;;;;2.50;1.00;;;;;21.10;40.94;99522.97;4900810;29;45462;-60
2022/09/29 06:05:12;;;;;;;;;1.33;1.33;;;;;21.10;40.88;99528.25;4901497;29;52651;-60
2022/09/29 06:07:37;;;;;;;;;1.00;1.00;;;;;21.09;40.43;99526.56;4901912;28;46242;-60
2022/09/29 06:10:03;;;;;;;;;1.00;1.00;;;;;21.10;40.74;99527.44;4901523;28;45255;-60
2022/09/29 06:12:33;;;;;;;;;2.00;2.00;;;;;21.09;40.93;99531.84;4901838;28;45493;-60
2022/09/29 06:14:58;;;;;;;;;2.25;1.00;;;;;21.09;40.86;99526.56;4901703;28;45433;-61
2022/09/29 06:17:24;;;;;;;;;2.00;2.00;;;;;21.10;40.72;99530.06;4901531;28;46302;-60
2022/09/29 06:19:49;;;;;;;;;2.00;2.00;;;;;21.11;41.07;99529.09;4901501;28;47869;-60
2022/09/29 06:22:14;;;;;;;;;0.25;0.25;;;;;21.10;40.95;99532.69;4902209;28;45445;-59
2022/09/29 06:24:40;;;;;;;;;1.25;1.25;;;;;21.10;40.85;99528.25;4901092;28;45470;-60
2022/09/29 06:27:05;;;;;;;;;1.00;1.00;;;;;21.11;40.80;99534.38;4899953;29;47161;-60
2022/09/29 06:29:30;;;;;;;;;4.25;2.00;;;;;21.10;41.31;99530.88;4901149;28;45434;-60
2022/09/29 06:31:55;;;;;;;;;1.00;1.00;;;;;21.10;41.27;99533.53;4901586;28;45420;-62
2022/09/29 06:34:21;;;;;;;;;2.00;2.00;;;;;21.10;40.98;99537.97;4899534;29;50642;-60
2022/09/29 06:39:30;;;;;;;;;1.25;0.75;;;;;21.09;40.88;99534.47;4900047;28;45870;-61
2022/09/29 06:41:55;;;;;;;;;1.00;1.00;;;;;21.11;41.08;99539.66;4899190;29;45365;-61
2022/09/29 06:44:23;;;;;;;;;2.00;2.00;;;;;21.12;41.00;99533.38;4902583;28;45736;-62
2022/09/29 06:46:50;;;;;;;;;2.00;2.00;;;;;21.11;40.91;99540.47;4909309;28;45368;-61
2022/09/29 06:49:16;;;;;;;;;2.00;2.00;;;;;21.12;41.21;99543.94;4912924;28;45689;-61
2022/09/29 06:51:42;;;;;;;;;1.50;1.50;;;;;21.11;41.42;99545.75;4909951;28;45244;-61
2022/09/29 06:54:09;;;;;;;;;3.00;1.25;;;;;21.11;41.09;99545.75;4921354;28;44993;-59
2022/09/29 06:56:37;;;;;;;;;2.25;1.00;;;;;21.12;41.06;99541.28;4928050;28;45625;-60
2022/09/29 06:59:02;;;;;;;;;2.00;1.00;;;;;21.12;41.23;99547.41;4941336;28;45707;-60
2022/09/29 07:01:28;;;;;;;;;2.50;1.00;;;;;21.14;41.18;99547.28;4933632;28;45516;-61
2022/09/29 07:03:53;;;;;;;;;1.00;1.00;;;;;21.13;40.90;99548.25;4923126;28;45389;-61
2022/09/29 07:06:18;;;;;;;;;2.00;2.00;;;;;21.13;40.93;99546.47;4920482;28;46943;-60
2022/09/29 07:08:46;;;;;;;;;1.00;1.00;;;;;21.14;41.10;99547.28;4907909;28;45359;-60
2022/09/29 07:11:11;;;;;;;;;2.00;2.00;;;;;21.15;41.32;99548.97;4901217;28;45255;-60
2022/09/29 07:13:37;;;;;;;;;2.25;1.75;;;;;21.14;41.20;99549.91;4901773;28;45484;-60
2022/09/29 07:16:10;;;;;;;;;1.75;1.00;;;;;21.13;41.20;99553.50;4900032;28;46092;-60
2022/09/29 07:18:37;;;;;;;;;3.50;2.00;;;;;21.14;41.09;99553.41;4900470;29;45434;-60
2022/09/29 07:21:04;;;;;;;;;1.25;1.00;;;;;21.15;40.95;99559.50;4899888;29;45400;-61
2022/09/29 07:23:29;;;;;;;;;2.00;2.00;;;;;21.14;41.65;99558.69;4900405;28;45477;-61
2022/09/29 07:25:55;;;;;;;;;1.00;1.00;;;;;21.16;41.10;99558.53;4900449;28;45743;-61
2022/09/29 07:28:20;;;;;;;;;3.25;2.00;;;;;21.15;41.57;99560.38;4899880;28;45950;-61
2022/09/29 07:30:45;;;;;;;;;2.75;0.75;;;;;21.16;41.38;99563.81;4898907;28;45422;-62
2022/09/29 07:33:11;;;;;;;;;3.75;1.00;;;;;21.17;41.42;99565.50;4918931;28;45812;-61
2022/09/29 07:35:36;;;;;;;;;2.00;2.00;;;;;21.18;41.53;99575.09;4917245;28;46362;-61
2022/09/29 07:38:01;;;;;;;;;1.75;1.50;;;;;21.19;41.31;99576.75;4909425;28;45760;-58
2022/09/29 07:40:27;;;;;;;;;2.00;1.00;;;;;21.19;41.44;99570.63;4900082;28;45276;-61
2022/09/29 07:42:52;;;;;;;;;2.00;2.00;;;;;21.19;40.94;99579.41;4899761;28;45443;-59
2022/09/29 07:45:18;;;;;;;;;2.00;2.00;;;;;21.20;41.28;99578.44;4899384;28;47196;-59
2022/09/29 07:47:43;;;;;;;;;2.00;2.00;;;;;21.20;41.23;99578.44;4899683;28;45435;-60
2022/09/29 07:50:09;;;;;;;;;4.50;2.00;;;;;21.21;41.29;99588.03;4900403;28;45467;-59
2022/09/29 07:52:34;;;;;;;;;1.00;1.00;;;;;21.20;41.34;99591.63;4900125;28;45309;-60
2022/09/29 07:55:00;;;;;;;;;3.00;2.00;;;;;21.20;40.99;99588.97;4900997;28;48789;-60
2022/09/29 07:57:26;;;;;;;;;1.00;1.00;;;;;21.19;41.60;99595.22;4900155;28;45725;-60
2022/09/29 07:59:53;;;;;;;;;2.00;2.00;;;;;21.21;41.59;99602.97;4899644;28;45256;-59
2022/09/29 08:02:19;;;;;;;;;2.75;2.00;;;;;21.21;41.16;99600.34;4899876;28;45616;-60
2022/09/29 08:04:44;;;;;;;;;2.50;2.00;;;;;21.20;41.46;99602.16;4899005;28;46511;-60
2022/09/29 08:07:09;;;;;;;;;1.25;1.25;;;;;21.19;40.96;99605.75;4900320;28;45294;-59
2022/09/29 08:09:35;;;;;;;;;1.25;1.25;;;;;21.20;41.48;99607.44;4906384;28;45748;-60
2022/09/29 08:12:01;;;;;;;;;1.00;1.00;;;;;21.20;41.42;99606.56;4900490;28;45808;-58
2022/09/29 08:14:27;;;;;;;;;3.50;2.50;;;;;21.23;41.31;99612.44;4918540;28;46241;-61
2022/09/29 08:16:52;;;;;;;;;1.00;1.00;;;;;21.24;41.17;99614.13;4901020;28;45437;-62
2022/09/29 08:19:18;;;;;;;;;2.00;2.00;;;;;21.23;41.19;99609.81;4899484;28;45275;-62
2022/09/29 08:21:44;;;;;;;;;4.75;2.00;;;;;21.25;41.49;99613.16;4899326;28;45668;-60
2022/09/29 08:24:12;;;;;;;;;1.00;1.00;;;;;21.26;41.12;99621.91;4900807;29;47541;-60
2022/09/29 08:26:39;;;;;;;;;4.00;1.25;;;;;21.26;41.13;99621.91;4902662;29;45664;-62
2022/09/29 08:29:04;;;;;;;;;2.50;2.50;;;;;21.25;41.67;99623.69;4902265;28;45334;-61
2022/09/29 08:31:30;;;;;;;;;3.50;2.00;;;;;21.29;41.30;99621.66;4902427;28;45636;-60
2022/09/29 08:34:00;;;;;;;;;2.50;2.00;;;;;21.30;41.30;99624.19;4900493;29;47383;-60
2022/09/29 08:56:36;;;;;;;;;5.50;2.25;;;;;21.38;41.59;99642.06;4901655;29;45236;-62
2022/09/29 08:59:01;;;;;;;;;3.00;1.00;;;;;21.39;41.05;99642.88;4901618;28;46450;-64
2022/09/29 09:01:26;;;;;;;;;3.75;2.00;;;;;21.41;41.28;99648.88;4902222;28;45429;-65
2022/09/29 09:04:26;;;;;;;;;4.67;3.00;;;;;21.42;41.04;99650.56;4901961;29;45236;-66
2022/09/29 09:07:00;;;;;;;;;2.50;2.50;;;;;21.41;41.12;99649.69;4901908;28;45494;-65
2022/09/29 09:09:51;;;;;;;;;2.75;2.75;;;;;21.42;41.04;99647.91;4902437;28;45823;-63
2022/09/29 09:12:27;;;;;;;;;5.25;3.25;;;;;21.42;41.11;99648.75;4900543;28;45377;-63
2022/09/29 09:15:27;;;;;;;;;3.25;3.00;;;;;21.43;41.23;99652.25;4901493;28;45259;-64
2022/09/29 09:18:10;;;;;;;;;2.00;2.00;;;;;21.44;41.31;99656.56;4900957;28;45393;-65
2022/09/29 09:21:03;;;;;;;;;3.50;2.25;;;;;21.44;41.08;99656.56;4901664;28;45666;-66
2022/09/29 09:23:41;;;;;;;;;2.00;2.00;;;;;21.47;41.21;99653.66;4900679;29;45372;-50
2022/09/29 09:26:10;;;;;;;;;1.00;1.00;;;;;21.42;41.12;99653.19;4901607;28;45490;-52
2022/09/29 09:28:45;;;;;;;;;4.50;2.25;;;;;21.39;41.16;99653.41;4902424;29;45240;-52
2022/09/29 09:31:25;;;;;;;;;3.75;2.00;;;;;21.36;41.35;99653.66;4905587;28;46261;-47
2022/09/29 09:34:19;;;;;;;;;2.00;2.00;;;;;21.34;41.04;99658.19;4922836;28;46443;-48
2022/09/29 09:37:10;;;;;;;;;3.00;2.00;;;;;21.33;41.01;99656.53;4924768;29;44829;-52
2022/09/29 09:39:43;;;;;;;;;3.00;3.00;;;;;21.30;41.13;99661.09;4920057;28;45418;-47
2022/09/29 09:42:19;;;;;;;;;3.25;2.75;;;;;21.29;41.07;99664.69;4908032;28;45177;-55
2022/09/29 09:44:53;;;;;;;;;2.00;2.00;;;;;21.27;41.27;99661.31;4906448;28;45776;-53
2022/09/29 09:47:18;;;;;;;;;3.00;3.00;;;;;21.27;41.37;99671.03;4901094;28;45488;-52
2022/09/29 09:49:51;;;;;;;;;3.00;1.50;;;;;21.25;41.18;99668.50;4901367;28;45393;-53
2022/09/29 09:52:25;;;;;;;;;3.00;3.00;;;;;21.25;41.08;99673.78;4901269;28;46390;-49
2022/09/29 09:54:58;;;;;;;;;2.75;2.25;;;;;21.24;41.20;99671.25;4902623;28;46021;-54
2022/09/29 09:57:59;;;;;;;;;4.75;3.00;;;;;21.23;41.34;99670.41;4902696;28;45346;-51
2022/09/29 10:00:31;;;;;;;;;3.00;3.00;;;;;21.21;41.02;99671.50;4902176;28;45509;-50
2022/09/29 10:03:03;;;;;;;;;2.75;2.50;;;;;21.21;40.92;99682.88;4900845;28;47140;-51
2022/09/29 10:05:41;;;;;;;;;3.25;2.50;;;;;21.20;41.28;99678.56;4901644;28;45914;-53
2022/09/29 10:08:24;;;;;;;;;4.25;3.75;;;;;21.19;41.11;99676.88;4907863;28;45495;-48
2022/09/29 10:10:51;;;;;;;;;4.00;3.00;;;;;21.18;40.96;99683.09;4904631;28;45429;-47
2022/09/29 10:13:17;;;;;;;;;3.25;2.75;;;;;21.15;41.16;99670.16;4901191;28;46238;-48
2022/09/29 10:16:02;;;;;;;;;2.50;2.50;;;;;21.17;40.77;99678.78;4900368;28;45271;-54
2022/09/29 10:18:40;;;;;;;;;3.00;3.00;;;;;21.16;40.96;99682.38;4901370;29;45382;-46
2022/09/29 10:21:22;;;;;;;;;2.50;2.50;;;;;21.16;40.95;99688.50;4903559;28;45386;-48
2022/09/29 10:23:52;;;;;;;;;3.00;3.00;;;;;21.12;40.98;99683.56;4902695;28;46734;-54
2022/09/29 10:26:24;;;;;;;;;4.00;2.75;;;;;21.16;40.69;99696.41;4910413;28;45230;-46
2022/09/29 10:28:57;;;;;;;;;3.75;3.75;;;;;21.14;40.87;99689.56;4903703;28;45409;-46
2022/09/29 10:31:33;;;;;;;;;3.75;3.00;;;;;21.10;40.88;99690.78;4900678;28;45352;-54
2022/09/29 10:34:22;;;;;;;;;3.50;3.50;;;;;21.08;41.12;99692.69;4900131;28;47190;-53
2022/09/29 10:36:55;;;;;;;;;5.00;4.00;;;;;21.02;40.60;99693.97;4900025;29;45346;-51
2022/09/29 10:39:48;;;;;;;;;5.00;4.25;;;;;20.96;40.83;99684.75;4901158;29;45453;-50
2022/09/29 10:42:24;;;;;;;;;4.25;4.25;;;;;20.92;40.89;99691.19;4901261;28;45665;-47
2022/09/29 10:45:00;;;;;;;;;4.50;4.00;;;;;20.88;40.84;99697.66;4901179;29;45836;-53
2022/09/29 10:47:25;;;;;;;;;4.00;4.00;;;;;20.82;40.97;99693.69;4901375;28;45245;-56
2022/09/29 10:50:17;;;;;;;;;3.75;3.75;;;;;20.82;41.09;99698.09;4900467;28;45234;-55
2022/09/29 10:52:48;;;;;;;;;4.75;4.00;;;;;20.79;41.02;99698.31;4900761;28;45460;-52
2022/09/29 10:55:23;;;;;;;;;4.00;4.00;;;;;20.76;41.00;99703.84;4902572;28;46494;-54
2022/09/29 10:57:50;;;;;;;;;5.00;5.00;;;;;20.77;41.03;99705.53;4900072;29;45453;-50
2022/09/29 11:00:33;;;;;;;;;3.75;3.75;;;;;20.74;41.41;99705.72;4901240;28;45434;-51
2022/09/29 11:03:16;;;;;;;;;4.25;4.25;;;;;20.73;41.06;99701.38;4901001;28;45551;-48
2022/09/29 11:06:11;;;;;;;;;5.50;5.00;;;;;20.72;41.11;99708.47;4904053;28;46495;-51
2022/09/29 11:08:57;;;;;;;;;5.25;4.00;;;;;20.68;41.30;99707.81;4905025;28;45401;-49
2022/09/29 11:11:28;;;;;;;;;5.25;5.25;;;;;20.64;41.57;99711.66;4905953;29;45506;-54
2022/09/29 11:13:54;;;;;;;;;6.25;4.00;;;;;20.61;41.47;99711.88;4906970;28;45160;-49
2022/09/29 11:16:37;;;;;;;;;7.75;5.00;;;;;20.59;41.74;99716.41;4902233;28;47072;-48
2022/09/29 11:19:07;;;;;;;;;7.75;5.00;;;;;20.49;41.53;99712.78;4901245;28;45845;-52
2022/09/29 11:21:35;;;;;;;;;6.25;5.50;;;;;20.59;41.47;99734.00;4900597;28;45464;-48
2022/09/29 11:24:12;;;;;;;;;6.25;4.75;;;;;20.57;41.93;99734.09;4900188;28;45545;-55
2022/09/29 11:27:01;;;;;;;;;6.50;4.25;;;;;20.57;41.76;99742.00;4901503;28;45530;-53
2022/09/29 11:29:52;;;;;;;;;6.75;6.00;;;;;20.57;41.93;99741.16;4901482;28;45702;-52
2022/09/29 11:32:38;;;;;;;;;5.50;5.00;;;;;20.52;41.79;99752.03;4904515;28;45455;-49
2022/09/29 11:35:19;;;;;;;;;5.75;5.00;;;;;20.49;41.90;99754.88;4902360;28;45519;-54
2022/09/29 11:38:22;;;;;;;;;7.00;6.00;;;;;20.47;41.98;99762.03;4900609;28;47393;-50
2022/09/29 11:40:53;;;;;;;;;4.00;4.00;;;;;20.44;42.29;99762.28;4900331;28;45864;-47
2022/09/29 11:43:48;;;;;;;;;5.00;5.00;;;;;20.42;42.14;99756.28;4909180;28;45247;-52
2022/09/29 11:46:50;;;;;;;;;5.25;4.25;;;;;20.41;42.50;99762.50;4916083;28;44765;-51
2022/09/29 11:49:55;;;;;;;;;5.50;4.00;;;;;20.38;42.65;99764.41;4910374;28;48204;-50
2022/09/29 11:52:34;;;;;;;;;9.00;5.75;;;;;20.37;42.17;99762.72;4906257;29;45468;-49
2022/09/29 11:55:42;;;;;;;;;6.25;5.50;;;;;20.35;42.63;99767.25;4912121;29;45256;-48
2022/09/29 11:58:30;;;;;;;;;6.00;6.00;;;;;20.33;42.35;99761.28;4905881;28;45622;-53
2022/09/29 12:01:23;;;;;;;;;6.25;5.25;;;;;20.35;42.47;99769.88;4911540;28;45535;-49
2022/09/29 12:04:18;;;;;;;;;9.50;5.75;;;;;20.37;42.47;99775.03;4906149;28;45841;-47
2022/09/29 12:06:54;;;;;;;;;7.00;7.00;;;;;20.38;42.58;99779.34;4907181;28;45420;-48
2022/09/29 12:09:47;;;;;;;;;4.00;4.00;;;;;20.39;42.50;99779.25;4907562;28;44711;-53
2022/09/29 12:12:35;;;;;;;;;5.50;5.50;;;;;20.44;42.88;99784.16;4906521;28;45475;-53
2022/09/29 12:15:24;;;;;;;;;7.25;5.00;;;;;20.45;42.58;99782.41;4904623;28;45397;-46
2022/09/29 12:17:58;;;;;;;;;4.75;4.75;;;;;20.47;43.09;99781.31;4911495;28;45314;-49